createdAt,value
2023-03-28T00:00:59.215Z,-1.80
2023-03-28T00:03:25.497Z,-1.81
2023-03-28T00:05:54.991Z,-1.83
2023-03-28T00:08:21.377Z,-1.86
2023-03-28T00:10:47.827Z,-1.87
2023-03-28T00:13:14.333Z,-1.88
2023-03-28T00:15:41.507Z,-1.89
2023-03-28T00:18:08.505Z,-1.91
2023-03-28T00:20:39.169Z,-1.93
2023-03-28T00:23:05.627Z,-1.94
2023-03-28T00:25:35.374Z,-1.95
2023-03-28T00:28:01.671Z,-1.98
2023-03-28T00:30:28.146Z,-2.00
2023-03-28T00:32:54.533Z,-2.02
2023-03-28T00:35:20.860Z,-2.03
2023-03-28T00:37:47.222Z,-2.05
2023-03-28T00:40:13.691Z,-2.05
2023-03-28T00:42:40.874Z,-2.06
2023-03-28T00:45:08.687Z,-2.08
2023-03-28T00:47:34.984Z,-2.11
2023-03-28T00:50:16.634Z,-2.12
2023-03-28T00:52:49.816Z,-2.14
2023-03-28T00:55:21.210Z,-2.14
2023-03-28T00:57:48.290Z,-2.15
2023-03-28T01:00:16.479Z,-2.15
2023-03-28T01:02:44.100Z,-2.17
2023-03-28T01:05:11.373Z,-2.19
2023-03-28T01:07:41.103Z,-2.20
2023-03-28T01:10:08.080Z,-2.21
2023-03-28T01:12:34.744Z,-2.21
2023-03-28T01:15:01.846Z,-2.21
2023-03-28T01:17:34.859Z,-2.21
2023-03-28T01:20:11.786Z,-2.22
2023-03-28T01:22:41.029Z,-2.23
2023-03-28T01:25:07.363Z,-2.26
2023-03-28T01:27:39.188Z,-2.29
2023-03-28T01:30:25.925Z,-2.32
2023-03-28T01:33:31.099Z,-2.33
2023-03-28T01:36:01.848Z,-2.34
2023-03-28T01:38:38.798Z,-2.35
2023-03-28T01:41:05.436Z,-2.37
2023-03-28T01:43:44.407Z,-2.38
2023-03-28T01:46:14.816Z,-2.37
2023-03-28T01:48:42.270Z,-2.36
2023-03-28T01:51:17.975Z,-2.35
2023-03-28T01:53:47.232Z,-2.35
2023-03-28T01:56:19.845Z,-2.34
2023-03-28T01:58:56.481Z,-2.33
2023-03-28T02:01:47.942Z,-2.34
2023-03-28T02:04:20.420Z,-2.33
2023-03-28T02:06:58.618Z,-2.34
2023-03-28T02:09:31.104Z,-2.33
2023-03-28T02:12:22.376Z,-2.28
2023-03-28T02:15:12.426Z,-2.16
2023-03-28T02:18:13.198Z,-2.04
2023-03-28T02:21:01.523Z,-1.94
2023-03-28T02:23:54.778Z,-1.83
2023-03-28T02:26:59.664Z,-1.70
2023-03-28T02:30:01.530Z,-1.59
2023-03-28T02:32:33.374Z,-1.48
2023-03-28T02:35:00.211Z,-1.39
2023-03-28T02:37:29.667Z,-1.31
2023-03-28T02:40:05.792Z,-1.22
2023-03-28T02:42:35.400Z,-1.15
2023-03-28T02:45:14.023Z,-1.07
2023-03-28T02:47:43.385Z,-1.01
2023-03-28T02:50:18.995Z,-0.95
2023-03-28T02:52:45.528Z,-0.89
2023-03-28T02:55:16.932Z,-0.84
2023-03-28T02:58:06.831Z,-0.78
2023-03-28T03:00:33.637Z,-0.72
2023-03-28T03:02:59.957Z,-0.68
2023-03-28T03:05:26.432Z,-0.63
2023-03-28T03:07:52.719Z,-0.60
2023-03-28T03:10:18.982Z,-0.59
2023-03-28T03:12:46.387Z,-0.58
2023-03-28T03:15:12.763Z,-0.55
2023-03-28T03:17:48.541Z,-0.55
2023-03-28T03:20:16.705Z,-0.54
2023-03-28T03:22:43.511Z,-0.54
2023-03-28T03:25:13.747Z,-0.54
2023-03-28T03:27:57.695Z,-0.53
2023-03-28T03:30:24.204Z,-0.49
2023-03-28T03:33:16.745Z,-0.45
2023-03-28T03:35:43.796Z,-0.40
2023-03-28T03:38:10.112Z,-0.38
2023-03-28T03:40:36.500Z,-0.37
2023-03-28T03:43:03.190Z,-0.36
2023-03-28T03:45:29.541Z,-0.37
2023-03-28T03:47:56.380Z,-0.36
2023-03-28T03:50:23.017Z,-0.36
2023-03-28T03:52:49.680Z,-0.38
2023-03-28T03:55:21.452Z,-0.39
2023-03-28T03:57:47.888Z,-0.39
2023-03-28T04:00:14.492Z,-0.38
2023-03-28T04:02:47.166Z,-0.38
2023-03-28T04:05:19.257Z,-0.36
2023-03-28T04:08:00.210Z,-0.35
2023-03-28T04:10:28.666Z,-0.33
2023-03-28T04:12:54.993Z,-0.31
2023-03-28T04:15:21.669Z,-0.29
2023-03-28T04:18:09.058Z,-0.28
2023-03-28T04:20:40.709Z,-0.26
2023-03-28T04:23:07.774Z,-0.24
2023-03-28T04:25:34.958Z,-0.22
2023-03-28T04:28:14.148Z,-0.18
2023-03-28T04:30:51.753Z,-0.16
2023-03-28T04:33:18.044Z,-0.14
2023-03-28T04:35:45.138Z,-0.13
2023-03-28T04:38:20.670Z,-0.11
2023-03-28T04:40:55.299Z,-0.09
2023-03-28T04:43:40.619Z,-0.06
2023-03-28T04:46:07.140Z,-0.03
2023-03-28T04:48:33.534Z,0.01
2023-03-28T04:50:59.855Z,0.04
2023-03-28T04:53:26.325Z,0.08
2023-03-28T04:56:12.536Z,0.10
2023-03-28T04:58:39.565Z,0.13
2023-03-28T05:01:06.990Z,0.17
2023-03-28T05:03:56.075Z,0.19
2023-03-28T05:06:22.544Z,0.20
2023-03-28T05:08:49.439Z,0.19
2023-03-28T05:11:17.265Z,0.21
2023-03-28T05:13:43.522Z,0.23
2023-03-28T05:16:22.642Z,0.24
2023-03-28T05:19:07.431Z,0.30
2023-03-28T05:21:58.133Z,0.33
2023-03-28T05:24:24.466Z,0.37
2023-03-28T05:26:51.076Z,0.43
2023-03-28T05:29:20.986Z,0.50
2023-03-28T05:31:47.546Z,0.58
2023-03-28T05:34:34.352Z,0.74
2023-03-28T05:37:02.082Z,0.84
2023-03-28T05:39:32.202Z,0.89
2023-03-28T05:42:03.900Z,0.84
2023-03-28T05:44:30.190Z,0.81
2023-03-28T05:47:15.152Z,0.89
2023-03-28T05:49:41.609Z,1.03
2023-03-28T05:52:09.210Z,1.13
2023-03-28T05:54:35.540Z,1.23
2023-03-28T05:57:01.931Z,1.36
2023-03-28T05:59:28.344Z,1.55
2023-03-28T06:01:54.866Z,1.79
2023-03-28T06:04:22.409Z,1.96
2023-03-28T06:06:49.545Z,2.19
2023-03-28T06:09:18.413Z,2.29
2023-03-28T06:11:50.022Z,2.25
2023-03-28T06:14:16.358Z,2.25
2023-03-28T06:16:43.133Z,2.24
2023-03-28T06:19:17.726Z,2.22
2023-03-28T06:21:49.636Z,2.22
2023-03-28T06:24:15.904Z,2.26
2023-03-28T06:26:42.456Z,2.22
2023-03-28T06:29:11.764Z,2.19
2023-03-28T06:31:42.521Z,2.18
2023-03-28T06:34:08.825Z,2.05
2023-03-28T06:36:44.192Z,1.86
2023-03-28T06:39:10.548Z,1.74
2023-03-28T06:41:37.081Z,1.67
2023-03-28T06:44:03.915Z,1.68
2023-03-28T06:46:47.320Z,1.75
2023-03-28T06:49:15.218Z,1.88
2023-03-28T06:52:00.422Z,1.88
2023-03-28T06:54:27.520Z,1.74
2023-03-28T06:56:53.891Z,1.58
2023-03-28T06:59:20.641Z,1.42
2023-03-28T07:01:53.151Z,1.27
2023-03-28T07:04:26.000Z,1.10
2023-03-28T07:06:52.355Z,0.99
2023-03-28T07:09:20.052Z,0.98
2023-03-28T07:11:50.833Z,1.16
2023-03-28T07:14:17.762Z,1.41
2023-03-28T07:16:44.649Z,1.66
2023-03-28T07:19:10.983Z,1.82
2023-03-28T07:21:37.790Z,1.93
2023-03-28T07:24:04.683Z,1.96
2023-03-28T07:26:43.796Z,2.18
2023-03-28T07:29:10.323Z,2.51
2023-03-28T07:31:36.706Z,2.88
2023-03-28T07:34:03.066Z,3.17
2023-03-28T07:36:29.612Z,3.15
2023-03-28T07:39:00.267Z,3.11
2023-03-28T07:41:26.749Z,3.09
2023-03-28T07:43:53.248Z,2.95
2023-03-28T07:46:19.616Z,2.78
2023-03-28T07:48:46.017Z,2.68
2023-03-28T07:51:14.345Z,2.69
2023-03-28T07:53:40.712Z,2.78
2023-03-28T07:56:07.756Z,2.76
2023-03-28T07:58:47.904Z,2.69
2023-03-28T08:01:14.744Z,2.78
2023-03-28T08:03:44.182Z,2.90
2023-03-28T08:06:24.350Z,2.81
2023-03-28T08:08:56.499Z,2.66
2023-03-28T08:11:28.824Z,2.53
2023-03-28T08:13:55.245Z,2.49
2023-03-28T08:16:23.091Z,2.62
2023-03-28T08:19:00.008Z,2.66
2023-03-28T08:21:38.682Z,2.88
2023-03-28T08:24:05.693Z,3.09
2023-03-28T08:26:34.933Z,3.14
2023-03-28T08:29:01.457Z,3.24
2023-03-28T08:31:28.667Z,3.29
2023-03-28T08:34:01.248Z,3.18
2023-03-28T08:36:32.809Z,3.18
2023-03-28T08:38:59.521Z,3.26
2023-03-28T08:41:44.909Z,3.40
2023-03-28T08:44:27.036Z,3.34
2023-03-28T08:46:58.735Z,3.41
2023-03-28T08:49:25.153Z,3.76
2023-03-28T08:51:56.047Z,3.86
2023-03-28T08:54:28.532Z,3.87
2023-03-28T08:56:56.208Z,3.84
2023-03-28T08:59:31.732Z,3.64
2023-03-28T09:01:58.275Z,3.65
2023-03-28T09:04:30.729Z,3.62
2023-03-28T09:07:11.327Z,3.54
2023-03-28T09:09:46.887Z,3.27
2023-03-28T09:12:38.582Z,3.41
2023-03-28T09:15:08.087Z,3.42
2023-03-28T09:17:47.654Z,3.32
2023-03-28T09:20:25.131Z,3.04
2023-03-28T09:22:57.770Z,2.90
2023-03-28T09:25:39.384Z,2.79
2023-03-28T09:28:06.248Z,2.78
2023-03-28T09:30:34.605Z,2.78
2023-03-28T09:33:04.816Z,2.75
2023-03-28T09:35:32.473Z,2.72
2023-03-28T09:38:01.640Z,2.67
2023-03-28T09:40:29.297Z,2.70
2023-03-28T09:43:23.344Z,2.56
2023-03-28T09:46:10.058Z,2.64
2023-03-28T09:48:39.714Z,2.82
2023-03-28T09:51:12.839Z,3.34
2023-03-28T09:53:39.191Z,4.03
2023-03-28T09:56:10.992Z,4.37
2023-03-28T09:59:07.770Z,4.40
2023-03-28T10:01:46.762Z,4.18
2023-03-28T10:04:32.987Z,4.18
2023-03-28T10:07:32.282Z,4.33
2023-03-28T10:10:09.973Z,4.32
2023-03-28T10:12:37.775Z,4.13
2023-03-28T10:15:04.549Z,3.87
2023-03-28T10:17:49.967Z,3.52
2023-03-28T10:20:22.870Z,3.28
2023-03-28T10:22:53.229Z,3.26
2023-03-28T10:25:32.476Z,3.24
2023-03-28T10:27:59.293Z,3.29
2023-03-28T10:30:27.308Z,3.57
2023-03-28T10:33:22.327Z,4.17
2023-03-28T10:36:03.469Z,4.83
2023-03-28T10:38:50.381Z,5.63
2023-03-28T10:41:56.440Z,6.30
2023-03-28T10:44:43.187Z,7.15
2023-03-28T10:47:17.493Z,7.69
2023-03-28T10:49:54.093Z,8.70
2023-03-28T10:52:30.658Z,8.91
2023-03-28T10:55:05.994Z,8.94
2023-03-28T10:57:52.746Z,9.33
2023-03-28T11:00:28.575Z,9.35
2023-03-28T11:03:06.485Z,8.70
2023-03-28T11:05:38.522Z,8.62
2023-03-28T11:08:14.378Z,7.90
2023-03-28T11:11:01.267Z,7.19
2023-03-28T11:13:53.102Z,6.48
2023-03-28T11:16:35.635Z,6.67
2023-03-28T11:19:33.395Z,8.32
2023-03-28T11:22:06.147Z,9.34
2023-03-28T11:24:41.650Z,10.44
2023-03-28T11:27:53.529Z,11.09
2023-03-28T11:30:52.180Z,11.15
2023-03-28T11:33:57.265Z,10.39
2023-03-28T11:36:37.250Z,9.95
2023-03-28T11:39:25.036Z,9.69
2023-03-28T11:41:53.226Z,8.93
2023-03-28T11:44:38.134Z,9.08
2023-03-28T11:47:20.749Z,9.68
2023-03-28T11:49:53.849Z,10.23
2023-03-28T11:52:45.573Z,10.13
2023-03-28T11:55:15.539Z,9.39
2023-03-28T11:57:49.672Z,8.76
2023-03-28T12:00:35.901Z,8.62
2023-03-28T12:03:09.660Z,9.89
2023-03-28T12:06:02.602Z,11.04
2023-03-28T12:08:40.978Z,11.83
2023-03-28T12:11:12.260Z,11.01
2023-03-28T12:14:08.649Z,9.41
2023-03-28T12:16:43.516Z,8.18
2023-03-28T12:19:12.497Z,7.22
2023-03-28T12:21:50.602Z,6.85
2023-03-28T12:24:29.611Z,8.26
2023-03-28T12:27:15.705Z,10.34
2023-03-28T12:29:46.575Z,11.36
2023-03-28T12:32:16.238Z,11.71
2023-03-28T12:34:48.505Z,11.51
2023-03-28T12:37:51.399Z,10.21
2023-03-28T12:40:22.128Z,8.99
2023-03-28T12:42:50.131Z,8.16
2023-03-28T12:45:24.209Z,7.73
2023-03-28T12:47:53.842Z,8.19
2023-03-28T12:50:32.088Z,8.38
2023-03-28T12:52:59.439Z,7.93
2023-03-28T12:55:34.269Z,7.03
2023-03-28T12:58:19.783Z,6.34
2023-03-28T13:01:08.098Z,5.72
2023-03-28T13:03:43.606Z,5.23
2023-03-28T13:06:16.737Z,4.53
2023-03-28T13:08:49.581Z,3.39
2023-03-28T13:11:19.012Z,2.50
2023-03-28T13:13:45.489Z,1.93
2023-03-28T13:16:21.669Z,1.52
2023-03-28T13:19:03.159Z,1.30
2023-03-28T13:21:53.145Z,0.99
2023-03-28T13:24:28.527Z,1.31
2023-03-28T13:26:55.556Z,2.27
2023-03-28T13:29:24.019Z,3.28
2023-03-28T13:31:50.586Z,4.94
2023-03-28T13:34:22.480Z,6.45
2023-03-28T13:36:49.568Z,8.72
2023-03-28T13:39:21.877Z,10.65
2023-03-28T13:41:48.177Z,11.78
2023-03-28T13:44:16.209Z,12.18
2023-03-28T13:46:44.365Z,12.53
2023-03-28T13:49:11.038Z,12.52
2023-03-28T13:51:39.634Z,13.42
2023-03-28T13:54:08.608Z,13.90
2023-03-28T13:56:35.200Z,14.07
2023-03-28T13:59:05.694Z,13.83
2023-03-28T14:01:41.269Z,14.60
2023-03-28T14:04:17.600Z,15.53
2023-03-28T14:06:43.965Z,14.81
2023-03-28T14:09:13.161Z,12.72
2023-03-28T14:11:40.295Z,10.28
2023-03-28T14:14:09.505Z,8.39
2023-03-28T14:16:36.632Z,7.03
2023-03-28T14:19:04.946Z,5.73
2023-03-28T14:21:32.199Z,4.78
2023-03-28T14:23:59.826Z,4.21
2023-03-28T14:26:28.541Z,3.68
2023-03-28T14:29:00.295Z,3.24
2023-03-28T14:31:28.276Z,3.00
2023-03-28T14:33:54.673Z,2.97
2023-03-28T14:36:20.988Z,2.94
2023-03-28T14:38:47.517Z,2.91
2023-03-28T14:41:18.580Z,2.89
2023-03-28T14:43:51.129Z,2.85
2023-03-28T14:46:20.893Z,2.81
2023-03-28T14:48:47.229Z,2.87
2023-03-28T14:51:13.628Z,2.96
2023-03-28T14:53:41.424Z,2.90
2023-03-28T14:56:10.051Z,2.90
2023-03-28T14:58:38.462Z,2.89
2023-03-28T15:01:06.543Z,2.76
2023-03-28T15:03:34.698Z,2.55
2023-03-28T15:06:01.688Z,2.37
2023-03-28T15:08:29.747Z,2.21
2023-03-28T15:10:57.504Z,2.11
2023-03-28T15:13:29.041Z,2.32
2023-03-28T15:15:56.394Z,2.39
2023-03-28T15:18:25.681Z,2.46
2023-03-28T15:20:54.080Z,2.47
2023-03-28T15:23:25.481Z,2.32
2023-03-28T15:25:51.999Z,2.08
2023-03-28T15:28:18.689Z,1.97
2023-03-28T15:30:45.848Z,1.83
2023-03-28T15:33:17.637Z,1.63
2023-03-28T15:35:44.222Z,1.34
2023-03-28T15:38:20.017Z,1.06
2023-03-28T15:40:50.707Z,0.86
2023-03-28T15:43:26.528Z,0.78
2023-03-28T15:45:57.987Z,0.81
2023-03-28T15:48:24.618Z,1.09
2023-03-28T15:50:53.157Z,1.40
2023-03-28T15:53:20.227Z,1.54
2023-03-28T15:55:47.584Z,1.49
2023-03-28T15:58:15.392Z,1.43
2023-03-28T16:00:41.795Z,1.23
2023-03-28T16:03:17.379Z,1.08
2023-03-28T16:05:48.288Z,0.98
2023-03-28T16:08:20.997Z,0.96
2023-03-28T16:10:47.564Z,0.91
2023-03-28T16:13:49.812Z,0.91
2023-03-28T16:16:52.714Z,0.90
2023-03-28T16:19:24.524Z,0.85
2023-03-28T16:21:51.771Z,0.78
2023-03-28T16:24:18.233Z,0.72
2023-03-28T16:26:45.381Z,0.70
2023-03-28T16:29:11.780Z,0.73
2023-03-28T16:31:38.305Z,0.81
2023-03-28T16:34:07.080Z,0.81
2023-03-28T16:36:34.876Z,0.84
2023-03-28T16:39:01.306Z,0.94
2023-03-28T16:41:27.750Z,0.89
2023-03-28T16:43:54.165Z,0.80
2023-03-28T16:46:20.599Z,0.70
2023-03-28T16:48:47.268Z,0.67
2023-03-28T16:51:13.611Z,0.57
2023-03-28T16:53:40.242Z,0.46
2023-03-28T16:56:07.732Z,0.38
2023-03-28T16:58:34.304Z,0.28
2023-03-28T17:01:14.329Z,0.23
2023-03-28T17:03:41.024Z,0.22
2023-03-28T17:06:08.863Z,0.16
2023-03-28T17:08:35.442Z,0.11
2023-03-28T17:11:03.261Z,0.06
2023-03-28T17:13:29.589Z,0.01
2023-03-28T17:15:55.981Z,-0.05
2023-03-28T17:18:22.568Z,-0.06
2023-03-28T17:21:03.396Z,-0.08
2023-03-28T17:23:30.147Z,-0.11
2023-03-28T17:25:56.528Z,-0.15
2023-03-28T17:28:23.757Z,-0.19
2023-03-28T17:30:50.147Z,-0.22
2023-03-28T17:33:18.941Z,-0.21
2023-03-28T17:35:45.882Z,-0.23
2023-03-28T17:38:13.273Z,-0.24
2023-03-28T17:40:44.816Z,-0.26
2023-03-28T17:43:11.097Z,-0.28
2023-03-28T17:45:37.638Z,-0.30
2023-03-28T17:48:05.367Z,-0.32
2023-03-28T17:50:32.154Z,-0.31
2023-03-28T17:52:59.049Z,-0.31
2023-03-28T17:55:25.560Z,-0.30
2023-03-28T17:57:52.121Z,-0.30
2023-03-28T18:00:18.842Z,-0.34
2023-03-28T18:02:45.464Z,-0.38
2023-03-28T18:05:22.217Z,-0.44
2023-03-28T18:07:50.457Z,-0.50
2023-03-28T18:10:19.811Z,-0.59
2023-03-28T18:12:47.156Z,-0.69
2023-03-28T18:15:14.695Z,-0.76
2023-03-28T18:17:41.002Z,-0.85
2023-03-28T18:20:07.945Z,-0.92
2023-03-28T18:22:34.429Z,-0.94
2023-03-28T18:25:00.780Z,-0.95
2023-03-28T18:27:27.514Z,-0.97
2023-03-28T18:29:54.162Z,-0.94
2023-03-28T18:32:20.656Z,-0.91
2023-03-28T18:34:47.242Z,-0.90
2023-03-28T18:37:13.784Z,-0.89
2023-03-28T18:39:40.223Z,-0.90
2023-03-28T18:42:08.389Z,-0.90
2023-03-28T18:44:38.382Z,-0.92
2023-03-28T18:47:05.355Z,-0.96
2023-03-28T18:49:33.900Z,-0.98
2023-03-28T18:52:03.990Z,-1.02
2023-03-28T18:54:32.141Z,-1.05
2023-03-28T18:57:01.216Z,-1.09
2023-03-28T18:59:28.629Z,-1.14
2023-03-28T19:01:55.162Z,-1.17
2023-03-28T19:04:22.510Z,-1.20
2023-03-28T19:06:49.714Z,-1.22
2023-03-28T19:09:16.181Z,-1.23
2023-03-28T19:11:42.764Z,-1.23
2023-03-28T19:14:09.151Z,-1.22
2023-03-28T19:16:35.545Z,-1.21
2023-03-28T19:19:02.277Z,-1.18
2023-03-28T19:21:28.800Z,-1.16
2023-03-28T19:23:56.286Z,-1.14
2023-03-28T19:26:24.166Z,-1.13
2023-03-28T19:28:52.842Z,-1.10
2023-03-28T19:31:23.471Z,-1.08
2023-03-28T19:33:52.020Z,-1.08
2023-03-28T19:36:19.645Z,-1.07
2023-03-28T19:38:49.467Z,-1.05
2023-03-28T19:41:17.811Z,-1.04
2023-03-28T19:43:46.080Z,-1.03
2023-03-28T19:46:28.026Z,-1.02
2023-03-28T19:48:56.614Z,-0.99
2023-03-28T19:51:23.400Z,-0.98
2023-03-28T19:53:50.278Z,-0.96
2023-03-28T19:56:17.521Z,-0.94
2023-03-28T19:58:44.509Z,-0.91
2023-03-28T20:01:11.405Z,-0.88
2023-03-28T20:03:38.084Z,-0.86
2023-03-28T20:06:07.945Z,-0.84
2023-03-28T20:08:34.572Z,-0.81
2023-03-28T20:11:01.500Z,-0.80
2023-03-28T20:13:30.599Z,-0.79
2023-03-28T20:16:00.910Z,-0.79
2023-03-28T20:18:27.648Z,-0.78
2023-03-28T20:20:55.395Z,-0.79
2023-03-28T20:23:23.923Z,-0.80
2023-03-28T20:25:52.897Z,-0.80
2023-03-28T20:28:22.139Z,-0.82
2023-03-28T20:30:53.414Z,-0.82
2023-03-28T20:33:20.866Z,-0.82
2023-03-28T20:35:53.627Z,-0.83
2023-03-28T20:38:20.844Z,-0.85
2023-03-28T20:40:47.381Z,-0.86
2023-03-28T20:43:14.029Z,-0.88
2023-03-28T20:45:40.392Z,-0.92
2023-03-28T20:48:06.815Z,-0.97
2023-03-28T20:50:33.555Z,-1.01
2023-03-28T20:53:00.390Z,-1.07
2023-03-28T20:55:26.944Z,-1.13
2023-03-28T20:57:53.263Z,-1.20
2023-03-28T21:00:19.814Z,-1.26
2023-03-28T21:02:46.665Z,-1.34
2023-03-28T21:05:13.336Z,-1.40
2023-03-28T21:07:39.743Z,-1.47
2023-03-28T21:10:06.524Z,-1.51
2023-03-28T21:12:32.826Z,-1.57
2023-03-28T21:14:59.060Z,-1.63
2023-03-28T21:17:25.639Z,-1.69
2023-03-28T21:19:52.465Z,-1.74
2023-03-28T21:22:19.411Z,-1.78
2023-03-28T21:24:46.154Z,-1.82
2023-03-28T21:27:12.483Z,-1.87
2023-03-28T21:29:38.816Z,-1.91
2023-03-28T21:32:05.257Z,-1.94
2023-03-28T21:34:31.646Z,-1.96
2023-03-28T21:36:58.156Z,-1.98
2023-03-28T21:39:24.558Z,-2.02
2023-03-28T21:41:50.909Z,-2.05
2023-03-28T21:44:17.233Z,-2.07
2023-03-28T21:46:43.990Z,-2.10
2023-03-28T21:49:10.357Z,-2.13
2023-03-28T21:51:36.714Z,-2.16
2023-03-28T21:54:03.633Z,-2.18
2023-03-28T21:56:29.944Z,-2.21
2023-03-28T21:58:56.608Z,-2.23
2023-03-28T22:01:22.973Z,-2.26
2023-03-28T22:03:49.493Z,-2.27
2023-03-28T22:06:17.146Z,-2.29
2023-03-28T22:08:44.078Z,-2.31
2023-03-28T22:11:12.181Z,-2.34
2023-03-28T22:13:38.878Z,-2.35
2023-03-28T22:16:05.587Z,-2.37
2023-03-28T22:18:32.431Z,-2.41
2023-03-28T22:20:59.080Z,-2.44
2023-03-28T22:23:25.560Z,-2.47
2023-03-28T22:25:53.244Z,-2.50
2023-03-28T22:28:20.313Z,-2.53
2023-03-28T22:31:04.925Z,-2.57
2023-03-28T22:33:31.810Z,-2.60
2023-03-28T22:35:58.300Z,-2.64
2023-03-28T22:38:24.701Z,-2.67
2023-03-28T22:40:51.039Z,-2.69
2023-03-28T22:43:17.331Z,-2.72
2023-03-28T22:45:43.679Z,-2.73
2023-03-28T22:48:10.259Z,-2.75
2023-03-28T22:50:36.702Z,-2.76
2023-03-28T22:53:03.061Z,-2.77
2023-03-28T22:55:29.817Z,-2.80
2023-03-28T22:57:56.665Z,-2.82
2023-03-28T23:00:23.356Z,-2.86
2023-03-28T23:02:51.243Z,-2.89
2023-03-28T23:05:18.481Z,-2.92
2023-03-28T23:07:45.016Z,-2.93
2023-03-28T23:10:12.748Z,-2.95
2023-03-28T23:12:40.057Z,-2.96
2023-03-28T23:15:06.714Z,-2.97
2023-03-28T23:17:33.034Z,-2.98
2023-03-28T23:19:59.748Z,-3.00
2023-03-28T23:22:26.230Z,-3.02
2023-03-28T23:24:52.511Z,-3.03
2023-03-28T23:27:19.622Z,-3.03
2023-03-28T23:29:46.016Z,-3.03
2023-03-28T23:32:12.305Z,-3.03
2023-03-28T23:34:39.057Z,-3.05
2023-03-28T23:37:05.556Z,-3.05
2023-03-28T23:39:31.860Z,-3.07
2023-03-28T23:41:58.501Z,-3.09
2023-03-28T23:44:24.967Z,-3.10
2023-03-28T23:46:51.256Z,-3.13
2023-03-28T23:49:17.967Z,-3.14
2023-03-28T23:51:44.498Z,-3.16
2023-03-28T23:54:10.833Z,-3.18
2023-03-28T23:56:38.252Z,-3.21
2023-03-28T23:59:04.779Z,-3.22
